Time;durP1;ratioP1;P1;durP2;ratioP2;P2;SDS_P1;SDS_P2;PMS_P1;PMS_P2;Temp;Humidity;BMP_temperature;BMP_pressure;BME280_temperature;BME280_humidity;BME280_pressure;Samples;Min_cycle;Max_cycle;Signal;HPM_P1;HPM_P2
2024/04/08 00:01:57;;;;;;;4.43;1.90;;;;;;;17.77;60.71;97601.47;5081131;28;20211;-81
2024/04/08 00:04:23;;;;;;;5.40;2.23;;;;;;;17.69;65.29;97633.50;5079973;28;20207;-81
2024/04/08 00:06:49;;;;;;;3.80;2.07;;;;;;;17.44;66.79;97621.03;5079955;28;20214;-81
2024/04/08 00:09:15;;;;;;;4.93;2.17;;;;;;;17.19;68.75;97637.09;5079207;28;20203;-81
2024/04/08 00:11:42;;;;;;;4.03;2.07;;;;;;;17.04;69.38;97625.31;5079391;28;20214;-81
2024/04/08 00:14:09;;;;;;;3.67;1.97;;;;;;;16.90;69.25;97616.06;5078977;28;20242;-81
2024/04/08 00:16:34;;;;;;;4.87;2.00;;;;;;;16.78;67.37;97606.66;5079409;28;20203;-81
2024/04/08 00:19:01;;;;;;;5.23;1.83;;;;;;;16.78;67.55;97600.47;5079409;28;20229;-81
2024/04/08 00:21:26;;;;;;;4.83;2.00;;;;;;;16.74;68.29;97597.28;5077887;28;20258;-80
2024/04/08 00:23:53;;;;;;;4.23;1.80;;;;;;;16.72;69.25;97601.09;5078695;28;20207;-81
2024/04/08 00:26:18;;;;;;;5.53;2.00;;;;;;;16.60;71.39;97624.53;5079248;28;20345;-83
2024/04/08 00:28:46;;;;;;;10.07;2.07;;;;;;;16.40;68.90;97615.03;5080284;28;20211;-81
2024/04/08 00:31:11;;;;;;;4.13;2.03;;;;;;;16.44;68.91;97608.41;5079625;28;20241;-81
2024/04/08 00:33:38;;;;;;;3.97;1.90;;;;;;;16.46;67.93;97611.72;5080323;28;20309;-81
2024/04/08 00:36:04;;;;;;;4.43;2.10;;;;;;;16.52;67.78;97599.63;5079490;28;20204;-81
2024/04/08 00:38:33;;;;;;;2.43;1.80;;;;;;;16.52;67.64;97588.97;5079920;28;20211;-81
2024/04/08 00:41:00;;;;;;;3.50;1.90;;;;;;;16.53;68.69;97591.44;5082324;28;20230;-81
2024/04/08 00:43:27;;;;;;;3.77;1.90;;;;;;;16.46;69.70;97605.59;5084744;28;20212;-81
2024/04/08 00:45:55;;;;;;;4.87;1.80;;;;;;;16.41;69.20;97602.53;5084842;28;20227;-81
2024/04/08 00:48:22;;;;;;;3.17;1.90;;;;;;;16.50;68.22;97598.91;5082675;28;20757;-81
2024/04/08 00:50:51;;;;;;;2.87;1.63;;;;;;;16.55;68.35;97594.81;5081197;28;20710;-83
2024/04/08 00:53:17;;;;;;;5.30;2.13;;;;;;;16.58;68.76;97599.81;5081314;28;20261;-81
2024/04/08 00:55:46;;;;;;;3.87;2.00;;;;;;;16.66;67.88;97580.38;5081044;28;20215;-81
2024/04/08 00:58:14;;;;;;;3.90;1.87;;;;;;;16.72;70.36;97591.28;5080528;28;20242;-81
2024/04/08 01:00:40;;;;;;;4.97;1.80;;;;;;;16.63;70.56;97592.19;5079798;28;20239;-81
2024/04/08 01:03:10;;;;;;;5.93;1.90;;;;;;;16.64;69.36;97580.53;5080372;28;20207;-80
2024/04/08 01:05:37;;;;;;;4.07;1.77;;;;;;;16.62;67.44;97574.50;5080434;28;20251;-80
2024/04/08 01:08:03;;;;;;;6.57;2.80;;;;;;;16.67;67.19;97572.22;5079453;28;20226;-80
2024/04/08 01:10:29;;;;;;;5.00;2.30;;;;;;;16.66;66.25;97578.56;5079595;28;20267;-80
2024/04/08 01:12:56;;;;;;;4.70;1.93;;;;;;;16.66;67.04;97573.22;5080036;28;20278;-80
2024/04/08 01:15:21;;;;;;;5.03;1.90;;;;;;;16.56;68.46;97580.47;5080466;28;20207;-82
2024/04/08 01:17:50;;;;;;;7.80;1.90;;;;;;;16.53;69.32;97586.09;5079716;28;20212;-80
2024/04/08 01:20:17;;;;;;;4.93;1.90;;;;;;;16.50;68.48;97583.78;5077729;28;20235;-80
2024/04/08 01:22:47;;;;;;;3.87;1.80;;;;;;;16.53;67.05;97564.75;5079520;28;20628;-80
2024/04/08 01:25:14;;;;;;;4.93;1.90;;;;;;;16.59;66.79;97556.13;5079544;28;20227;-80
2024/04/08 01:27:40;;;;;;;3.80;2.17;;;;;;;16.52;69.28;97579.09;5079519;28;20243;-80
2024/04/08 01:30:07;;;;;;;6.23;2.23;;;;;;;16.48;69.92;97576.91;5079446;28;20282;-80
2024/04/08 01:32:33;;;;;;;4.93;2.33;;;;;;;16.43;70.81;97576.53;5078863;28;20253;-80
2024/04/08 01:34:59;;;;;;;5.53;2.20;;;;;;;16.40;70.24;97575.00;5079712;28;20204;-80
2024/04/08 01:37:25;;;;;;;6.80;2.13;;;;;;;16.35;70.14;97571.13;5079286;28;20210;-80
2024/04/08 01:39:51;;;;;;;6.10;2.60;;;;;;;16.33;70.48;97578.44;5079194;28;20948;-80
2024/04/08 01:42:18;;;;;;;5.37;2.07;;;;;;;16.29;70.47;97575.25;5079049;28;20298;-80
2024/04/08 01:44:45;;;;;;;5.23;2.10;;;;;;;16.34;69.92;97574.78;5079111;28;20577;-80
2024/04/08 01:47:12;;;;;;;10.17;3.47;;;;;;;16.43;68.63;97561.38;5079402;28;20708;-80
2024/04/08 01:49:37;;;;;;;7.67;3.00;;;;;;;16.47;68.17;97557.38;5079849;28;20227;-81
2024/04/08 01:52:04;;;;;;;6.63;2.90;;;;;;;16.58;67.16;97556.31;5079525;28;20242;-81
2024/04/08 01:54:30;;;;;;;7.00;2.93;;;;;;;16.63;66.99;97554.84;5078870;28;20207;-81
2024/04/08 01:56:56;;;;;;;5.17;2.80;;;;;;;16.64;67.14;97555.69;5079680;28;20299;-81
2024/04/08 01:59:23;;;;;;;9.73;2.80;;;;;;;16.72;66.73;97537.06;5078661;28;20217;-81
2024/04/08 02:01:49;;;;;;;5.30;2.67;;;;;;;16.70;66.70;97537.19;5079214;28;20302;-81
2024/04/08 02:04:15;;;;;;;8.33;2.60;;;;;;;16.71;66.95;97543.38;5079307;28;20207;-81
2024/04/08 02:06:41;;;;;;;3.90;2.33;;;;;;;16.72;67.10;97537.91;5079554;28;20234;-81
2024/04/08 02:09:08;;;;;;;6.13;2.50;;;;;;;16.70;66.98;97539.88;5079040;28;20212;-81
2024/04/08 02:11:34;;;;;;;5.43;2.93;;;;;;;16.70;66.89;97550.53;5076907;28;20215;-81
2024/04/08 02:14:00;;;;;;;4.87;2.40;;;;;;;16.71;66.45;97546.88;5077561;28;20208;-81
2024/04/08 02:16:27;;;;;;;7.03;2.67;;;;;;;16.67;67.17;97558.88;5077773;28;20203;-81
2024/04/08 02:18:53;;;;;;;5.43;2.97;;;;;;;16.67;67.87;97566.88;5076264;28;20218;-81
2024/04/08 02:21:19;;;;;;;7.70;2.90;;;;;;;16.66;68.48;97564.38;5077533;28;20224;-81
2024/04/08 02:23:48;;;;;;;4.97;2.33;;;;;;;16.62;69.29;97577.19;5077078;28;20242;-81
2024/04/08 02:26:14;;;;;;;7.10;3.17;;;;;;;16.51;70.09;97593.44;5076960;28;20234;-81
2024/04/08 02:28:40;;;;;;;9.80;3.67;;;;;;;16.48;70.60;97599.09;5076894;28;20211;-81
2024/04/08 02:31:06;;;;;;;8.07;3.93;;;;;;;16.43;70.98;97601.38;5076676;28;20251;-81
2024/04/08 02:33:33;;;;;;;5.93;2.43;;;;;;;16.34;70.65;97596.94;5077176;28;20211;-81
2024/04/08 02:36:03;;;;;;;7.60;2.70;;;;;;;16.29;69.71;97593.91;5077603;28;20211;-81
2024/04/08 02:38:28;;;;;;;7.77;3.40;;;;;;;16.27;70.51;97597.72;5076874;28;20207;-81
2024/04/08 02:40:55;;;;;;;5.20;2.67;;;;;;;16.22;70.83;97595.50;5076697;28;20323;-81
2024/04/08 02:43:22;;;;;;;5.90;2.70;;;;;;;16.18;70.91;97591.47;5076632;28;20208;-81
2024/04/08 02:45:48;;;;;;;5.63;2.97;;;;;;;16.13;71.19;97599.09;5076248;28;20259;-81
2024/04/08 02:48:15;;;;;;;7.53;2.57;;;;;;;16.10;71.47;97595.91;5077089;28;20211;-81
2024/04/08 02:50:43;;;;;;;5.87;3.53;;;;;;;16.08;71.43;97602.38;5076766;28;20648;-81
2024/04/08 02:53:10;;;;;;;6.90;2.43;;;;;;;15.98;72.57;97600.59;5081805;28;20203;-81
2024/04/08 02:55:36;;;;;;;6.53;2.80;;;;;;;15.92;73.28;97607.53;5084111;28;20214;-81
2024/04/08 02:58:02;;;;;;;6.63;2.97;;;;;;;15.87;74.08;97601.81;5082011;28;20214;-81
2024/04/08 03:00:28;;;;;;;6.37;2.80;;;;;;;15.87;74.28;97601.81;5079017;28;20322;-81
2024/04/08 03:02:54;;;;;;;3.87;2.73;;;;;;;15.80;74.82;97604.28;5079199;28;20207;-81
2024/04/08 03:05:21;;;;;;;8.83;3.20;;;;;;;15.72;75.47;97614.00;5079012;28;20219;-81
2024/04/08 03:07:50;;;;;;;7.23;3.03;;;;;;;15.65;75.74;97608.41;5078931;28;20203;-81
2024/04/08 03:10:16;;;;;;;6.37;3.00;;;;;;;15.62;75.51;97608.72;5078324;28;20233;-81
2024/04/08 03:12:42;;;;;;;8.47;3.30;;;;;;;15.55;76.02;97604.16;5078826;28;20324;-81
2024/04/08 03:16:45;;;;;;;6.47;3.10;;;;;;;15.44;76.24;97601.69;5512315;25;20642;-80
2024/04/08 03:19:14;;;;;;;4.37;2.90;;;;;;;15.36;76.89;97606.91;5513400;25;20721;-80
2024/04/08 03:21:39;;;;;;;5.40;2.70;;;;;;;15.20;78.80;97617.31;5549626;25;20352;-80
2024/04/08 03:24:07;;;;;;;7.33;2.57;;;;;;;15.07;79.86;97627.47;5549280;25;20221;-80
2024/04/08 03:26:33;;;;;;;5.67;3.37;;;;;;;14.95;81.79;97620.66;5548580;25;20612;-80
2024/04/08 03:29:02;;;;;;;7.27;2.87;;;;;;;14.87;82.29;97623.19;5548948;25;20424;-80
2024/04/08 03:31:28;;;;;;;8.13;3.00;;;;;;;14.78;83.28;97630.22;5548335;25;20275;-82
2024/04/08 03:33:59;;;;;;;8.60;3.50;;;;;;;14.70;83.70;97630.09;5549324;25;20224;-81
2024/04/08 03:36:24;;;;;;;6.90;3.40;;;;;;;14.62;85.04;97637.13;5549354;25;20285;-81
2024/04/08 03:38:53;;;;;;;6.07;2.80;;;;;;;14.58;85.54;97646.34;5548469;25;20376;-80
2024/04/08 03:41:21;;;;;;;7.50;2.63;;;;;;;14.60;84.38;97644.41;5548440;25;20241;-80
2024/04/08 03:43:50;;;;;;;3.77;2.20;;;;;;;14.59;84.23;97637.38;5548458;25;20221;-80
2024/04/08 03:46:18;;;;;;;6.73;2.87;;;;;;;14.68;84.43;97645.38;5548103;25;20209;-81
2024/04/08 03:48:43;;;;;;;8.20;2.80;;;;;;;14.62;84.51;97631.81;5547806;25;20286;-80
2024/04/08 03:51:15;;;;;;;5.90;2.60;;;;;;;14.62;84.83;97645.94;5547921;25;20233;-81
2024/04/08 03:53:41;;;;;;;6.37;2.77;;;;;;;14.64;83.99;97640.47;5548401;25;20260;-81
2024/04/08 03:56:11;;;;;;;6.70;2.67;;;;;;;14.60;84.55;97649.72;5548194;25;20218;-81
2024/04/08 03:58:38;;;;;;;5.03;2.63;;;;;;;14.61;84.32;97640.78;5547246;25;20273;-81
2024/04/08 04:01:06;;;;;;;4.73;2.57;;;;;;;14.60;84.27;97639.09;5547077;25;20349;-81
2024/04/08 04:03:33;;;;;;;8.03;2.70;;;;;;;14.59;84.87;97654.19;5547093;25;20642;-81
2024/04/08 04:06:07;;;;;;;5.67;2.93;;;;;;;14.54;84.69;97647.66;5547659;25;20282;-81
2024/04/08 04:08:35;;;;;;;4.17;2.40;;;;;;;14.47;85.21;97654.47;5547671;25;20272;-81
2024/04/08 04:11:04;;;;;;;6.90;2.43;;;;;;;14.44;85.63;97654.78;5546938;25;20368;-81
2024/04/08 04:13:29;;;;;;;6.00;2.87;;;;;;;14.38;86.09;97653.53;5547280;25;20328;-82
2024/04/08 04:15:58;;;;;;;6.20;2.13;;;;;;;14.33;85.73;97652.25;5573976;25;20723;-81
2024/04/08 04:18:23;;;;;;;4.37;2.30;;;;;;;14.26;86.88;97659.13;5584822;25;20319;-81
2024/04/08 04:20:51;;;;;;;6.60;2.90;;;;;;;14.21;88.17;97669.31;5584105;25;20652;-82
2024/04/08 04:23:18;;;;;;;5.23;2.23;;;;;;;14.11;89.87;97671.13;5584667;25;20803;-82
2024/04/08 04:25:53;;;;;;;7.60;2.70;;;;;;;14.07;89.89;97667.06;5583142;25;20228;-81
2024/04/08 04:28:18;;;;;;;5.17;2.30;;;;;;;14.01;90.26;97672.94;5567970;25;20217;-81
2024/04/08 04:30:54;;;;;;;6.67;2.90;;;;;;;14.04;90.94;97672.63;5568261;25;20280;-81
2024/04/08 04:33:20;;;;;;;5.13;2.47;;;;;;;14.03;90.83;97670.97;5569253;25;20323;-81
2024/04/08 04:35:53;;;;;;;5.23;2.30;;;;;;;13.99;90.87;97664.25;5569486;25;20225;-81
2024/04/08 04:38:19;;;;;;;6.70;2.70;;;;;;;13.98;91.25;97657.25;5570734;25;20228;-81
2024/04/08 04:41:00;;;;;;;5.37;2.70;;;;;;;13.97;91.35;97666.19;5568863;25;20329;-81
2024/04/08 04:43:26;;;;;;;5.57;3.00;;;;;;;13.96;91.62;97667.19;5568014;25;20281;-81
2024/04/08 04:45:54;;;;;;;7.67;3.33;;;;;;;14.13;90.50;97655.88;5567704;25;20678;-81
2024/04/08 04:48:19;;;;;;;9.53;3.70;;;;;;;14.18;89.12;97653.66;5566738;25;20759;-81
2024/04/08 04:50:48;;;;;;;8.17;3.27;;;;;;;14.18;89.38;97656.31;5566025;25;20236;-81
2024/04/08 04:53:14;;;;;;;9.87;3.60;;;;;;;14.18;89.34;97650.97;5567352;25;20241;-81
2024/04/08 04:55:42;;;;;;;10.60;3.90;;;;;;;14.23;88.70;97640.81;5567293;25;20316;-81
2024/04/08 04:58:10;;;;;;;7.03;3.77;;;;;;;14.30;87.88;97647.25;5567785;25;20217;-81
2024/04/08 05:00:38;;;;;;;8.53;3.90;;;;;;;14.31;86.88;97646.25;5567733;25;20277;-81
2024/04/08 05:03:04;;;;;;;8.30;3.60;;;;;;;14.34;87.21;97648.63;5568739;25;20265;-81
2024/04/08 05:05:32;;;;;;;10.17;3.60;;;;;;;14.36;87.70;97646.69;5571357;25;20221;-81
2024/04/08 05:07:58;;;;;;;4.80;3.37;;;;;;;14.30;89.30;97671.16;5572576;25;20259;-81
2024/04/08 05:10:26;;;;;;;8.30;3.73;;;;;;;14.29;89.98;97662.34;5572164;25;20233;-81
2024/04/08 05:12:52;;;;;;;7.30;3.60;;;;;;;14.35;89.08;97668.94;5568804;25;20261;-81
2024/04/08 05:15:23;;;;;;;7.23;3.87;;;;;;;14.29;89.94;97680.13;5568415;25;20459;-81
2024/04/08 05:17:49;;;;;;;8.63;3.73;;;;;;;14.22;91.18;97692.25;5568486;25;20228;-81
2024/04/08 05:20:17;;;;;;;8.47;4.13;;;;;;;14.17;92.61;97699.81;5567570;25;20236;-81
2024/04/08 05:22:46;;;;;;;7.33;3.33;;;;;;;14.13;93.47;97693.91;5568804;25;20348;-80
2024/04/08 05:25:16;;;;;;;8.03;3.70;;;;;;;14.14;94.90;97702.72;5567987;25;20273;-80
2024/04/08 05:27:41;;;;;;;4.87;3.47;;;;;;;14.13;95.10;97706.38;5567877;25;20276;-80
2024/04/08 05:30:10;;;;;;;9.03;3.77;;;;;;;14.10;95.51;97709.28;5567629;25;20651;-82
2024/04/08 05:32:38;;;;;;;9.07;3.97;;;;;;;14.09;95.97;97707.63;5567674;25;20698;-81
2024/04/08 05:35:07;;;;;;;8.30;3.70;;;;;;;14.10;96.26;97709.28;5568048;25;20221;-81
2024/04/08 05:37:32;;;;;;;7.20;3.17;;;;;;;14.12;97.74;97726.78;5568301;25;20221;-81
2024/04/08 05:40:01;;;;;;;6.97;3.53;;;;;;;14.17;97.83;97715.75;5567143;25;20291;-81
2024/04/08 05:42:26;;;;;;;8.97;3.63;;;;;;;14.21;97.93;97706.53;5568261;25;20805;-81
2024/04/08 05:44:56;;;;;;;10.63;3.53;;;;;;;14.24;97.27;97704.44;5567825;25;20229;-81
2024/04/08 05:47:22;;;;;;;7.03;3.67;;;;;;;14.31;97.76;97702.09;5568265;25;20338;-81
2024/04/08 05:49:52;;;;;;;7.43;3.20;;;;;;;14.45;96.86;97699.00;5568717;25;20245;-81
2024/04/08 05:52:18;;;;;;;7.17;3.30;;;;;;;14.56;95.04;97688.22;5568177;25;20331;-81
2024/04/08 05:54:46;;;;;;;8.40;3.57;;;;;;;14.73;92.87;97679.53;5569742;25;20225;-81
2024/04/08 05:57:12;;;;;;;6.90;3.57;;;;;;;14.78;91.99;97679.94;5569804;25;20352;-81
2024/04/08 05:59:40;;;;;;;8.83;3.73;;;;;;;14.87;91.15;97674.59;5568994;25;20232;-81
2024/04/08 06:02:07;;;;;;;7.63;3.80;;;;;;;14.84;92.92;97674.06;5568238;25;20293;-81
2024/04/08 06:04:35;;;;;;;8.47;4.73;;;;;;;14.83;95.17;97677.66;5568902;25;20212;-80
2024/04/08 06:07:04;;;;;;;11.03;3.87;;;;;;;14.79;96.87;97682.44;5563532;25;20582;-78
2024/04/08 06:09:32;;;;;;;8.90;3.90;;;;;;;14.80;98.38;97683.28;5561148;25;20271;-77
2024/04/08 06:11:58;;;;;;;6.43;3.47;;;;;;;14.81;98.29;97675.19;5562672;25;20690;-78
2024/04/08 06:14:26;;;;;;;10.47;4.70;;;;;;;14.89;98.67;97687.75;5565761;25;20236;-81
2024/04/08 06:16:54;;;;;;;8.60;4.10;;;;;;;14.96;100.00;97694.19;5567319;25;20280;-81
2024/04/08 06:19:20;;;;;;;8.43;4.20;;;;;;;15.06;100.00;97697.66;5565220;25;20319;-80
2024/04/08 06:21:48;;;;;;;8.97;4.23;;;;;;;15.17;100.00;97697.50;5568529;25;20220;-81
2024/04/08 06:24:16;;;;;;;9.47;4.47;;;;;;;15.23;100.00;97697.75;5568035;25;20213;-81
2024/04/08 06:26:44;;;;;;;8.80;4.40;;;;;;;15.27;100.00;97698.31;5567687;25;20277;-81
2024/04/08 06:29:10;;;;;;;11.13;4.30;;;;;;;15.30;99.15;97687.34;5566011;25;20220;-81
2024/04/08 06:31:38;;;;;;;6.83;4.10;;;;;;;15.38;98.27;97691.00;5566081;25;20302;-82
2024/04/08 06:34:04;;;;;;;6.87;3.43;;;;;;;15.47;98.12;97679.44;5568741;25;20272;-82
2024/04/08 06:36:35;;;;;;;7.97;3.70;;;;;;;15.54;96.48;97674.38;5565751;25;20289;-78
2024/04/08 06:39:00;;;;;;;8.33;3.83;;;;;;;15.63;94.64;97674.34;5565149;25;20216;-81
2024/04/08 06:41:34;;;;;;;7.90;3.30;;;;;;;15.78;95.00;97677.34;5567251;25;20309;-80
2024/04/08 06:43:59;;;;;;;5.57;3.50;;;;;;;15.88;94.37;97680.81;5561598;25;20233;-80
2024/04/08 06:46:27;;;;;;;9.07;3.63;;;;;;;16.00;94.30;97677.75;5563689;25;20275;-80
2024/04/08 06:48:53;;;;;;;11.93;3.33;;;;;;;16.10;92.86;97673.22;5563748;25;20309;-80
2024/04/08 06:51:21;;;;;;;7.37;3.40;;;;;;;16.17;91.82;97669.81;5564053;25;20754;-80
2024/04/08 06:53:46;;;;;;;11.03;3.70;;;;;;;16.33;89.23;97653.13;5565098;25;20265;-83
2024/04/08 06:56:15;;;;;;;11.53;4.17;;;;;;;16.52;89.19;97661.81;5562199;25;20320;-82
2024/04/08 06:58:43;;;;;;;9.83;3.80;;;;;;;16.66;86.88;97642.59;5564119;25;20300;-82
2024/04/08 07:01:11;;;;;;;5.93;3.03;;;;;;;16.75;87.48;97649.66;5563559;25;20237;-82
2024/04/08 07:03:37;;;;;;;7.73;3.47;;;;;;;16.82;87.18;97648.03;5564727;25;20260;-81
2024/04/08 07:06:05;;;;;;;5.20;3.03;;;;;;;16.88;84.50;97642.06;5564283;25;20225;-82
2024/04/08 07:08:30;;;;;;;8.10;4.00;;;;;;;16.96;83.34;97642.09;5564636;25;20327;-82
2024/04/08 07:10:59;;;;;;;9.33;3.17;;;;;;;17.05;82.28;97637.66;5564067;25;20249;-82
2024/04/08 07:13:24;;;;;;;8.07;2.70;;;;;;;17.16;80.92;97624.03;5564403;25;20280;-82
2024/04/08 07:15:58;;;;;;;7.90;3.17;;;;;;;17.26;79.40;97622.09;5565632;25;20313;-82
2024/04/08 07:18:27;;;;;;;7.17;3.13;;;;;;;17.38;77.79;97611.00;5568581;25;20280;-81
2024/04/08 07:20:52;;;;;;;6.53;3.47;;;;;;;17.52;78.49;97610.41;5567098;25;20277;-81
2024/04/08 07:23:21;;;;;;;11.40;3.77;;;;;;;17.71;77.97;97607.47;5566145;25;20339;-81
2024/04/08 07:25:46;;;;;;;7.80;2.90;;;;;;;18.00;75.44;97591.81;5564413;25;20276;-81
2024/04/08 07:28:14;;;;;;;10.17;3.17;;;;;;;18.11;75.42;97598.69;5564166;25;20236;-81
2024/04/08 07:30:40;;;;;;;9.70;3.27;;;;;;;18.14;73.67;97582.28;5564354;25;20269;-81
2024/04/08 07:33:10;;;;;;;5.77;2.80;;;;;;;18.26;74.67;97586.31;5563658;25;20320;-81
2024/04/08 07:35:36;;;;;;;8.53;3.00;;;;;;;18.28;74.51;97587.81;5563634;25;20221;-80
2024/04/08 07:38:05;;;;;;;5.53;2.47;;;;;;;18.45;74.38;97577.97;5564192;25;20662;-80
2024/04/08 07:40:30;;;;;;;7.20;3.00;;;;;;;18.47;74.09;97579.50;5563937;25;20244;-81
2024/04/08 07:42:58;;;;;;;5.87;3.00;;;;;;;18.57;72.31;97569.47;5563807;25;20319;-81
2024/04/08 07:45:24;;;;;;;8.17;3.20;;;;;;;18.72;72.23;97572.28;5563305;25;20276;-81
2024/04/08 07:47:52;;;;;;;8.13;3.87;;;;;;;18.92;70.59;97562.84;5563443;25;20321;-81
2024/04/08 07:50:21;;;;;;;6.07;2.97;;;;;;;18.98;71.43;97568.38;5563105;25;20837;-80
2024/04/08 07:52:49;;;;;;;5.87;3.17;;;;;;;19.06;73.62;97584.41;5563335;25;20263;-81
2024/04/08 07:55:14;;;;;;;8.53;3.20;;;;;;;19.21;71.13;97568.50;5562843;25;20272;-81
2024/04/08 07:57:42;;;;;;;5.77;2.63;;;;;;;19.39;71.72;97582.50;5562007;25;20221;-81
2024/04/08 08:00:08;;;;;;;11.40;3.50;;;;;;;19.57;69.81;97569.69;5562536;25;20361;-82
2024/04/08 08:02:37;;;;;;;7.67;2.80;;;;;;;19.66;70.28;97558.75;5565681;25;20237;-81
2024/04/08 08:05:03;;;;;;;7.80;3.10;;;;;;;19.81;69.36;97564.19;5567755;25;20233;-80
2024/04/08 08:07:35;;;;;;;10.57;3.20;;;;;;;19.90;70.78;97576.53;5567647;25;20269;-82
2024/04/08 08:10:03;;;;;;;9.73;3.17;;;;;;;20.04;69.26;97568.56;5567672;25;20245;-81
2024/04/08 08:12:31;;;;;;;7.20;2.83;;;;;;;20.09;68.71;97568.91;5567422;25;20248;-81
2024/04/08 08:14:59;;;;;;;8.27;3.10;;;;;;;20.27;70.19;97585.53;5566959;25;20405;-81
2024/04/08 08:17:28;;;;;;;10.57;2.93;;;;;;;20.35;68.81;97561.31;5566356;25;20330;-81
2024/04/08 08:19:57;;;;;;;6.00;2.80;;;;;;;20.46;66.55;97552.84;5566816;25;20340;-81
2024/04/08 08:22:26;;;;;;;10.07;2.87;;;;;;;20.56;66.21;97549.88;5567203;25;20332;-81
2024/04/08 08:24:56;;;;;;;9.33;3.03;;;;;;;20.58;66.70;97548.69;5567372;25;20221;-82
2024/04/08 08:27:25;;;;;;;9.27;3.10;;;;;;;20.74;66.54;97556.59;5567551;25;20682;-82
2024/04/08 08:29:54;;;;;;;7.73;2.77;;;;;;;20.82;65.48;97540.41;5566603;25;20236;-82
2024/04/08 08:32:20;;;;;;;7.50;2.70;;;;;;;20.89;64.33;97543.19;5567146;25;20312;-82
2024/04/08 08:34:48;;;;;;;6.00;3.07;;;;;;;21.02;64.41;97543.41;5567711;25;20221;-82
2024/04/08 08:37:14;;;;;;;6.83;2.60;;;;;;;21.12;62.53;97528.69;5567227;25;20221;-82
2024/04/08 08:39:42;;;;;;;5.50;2.60;;;;;;;21.11;63.41;97532.38;5566445;25;20773;-81
2024/04/08 08:42:18;;;;;;;6.67;2.47;;;;;;;21.19;64.17;97542.19;5567069;25;20345;-83
2024/04/08 08:44:53;;;;;;;6.13;2.40;;;;;;;21.33;62.38;97523.38;5567437;25;20251;-81
2024/04/08 08:47:21;;;;;;;9.77;2.50;;;;;;;21.47;61.20;97516.31;5567450;25;20556;-81
2024/04/08 08:49:52;;;;;;;5.53;2.20;;;;;;;21.60;60.68;97517.31;5566325;25;20271;-81
2024/04/08 08:52:17;;;;;;;5.03;2.37;;;;;;;21.71;61.11;97514.13;5566948;25;20245;-81
2024/04/08 08:54:45;;;;;;;9.07;2.40;;;;;;;21.81;61.22;97517.34;5567462;25;20252;-82
2024/04/08 08:57:14;;;;;;;5.93;3.10;;;;;;;21.92;61.11;97513.31;5566530;25;20311;-84
2024/04/08 08:59:44;;;;;;;8.37;2.70;;;;;;;22.06;59.59;97480.16;5533179;25;20229;-80
2024/04/08 09:02:12;;;;;;;5.90;2.53;;;;;;;22.28;59.94;97500.63;5566213;25;20663;-87
2024/04/08 09:04:42;;;;;;;7.30;2.33;;;;;;;22.41;56.64;97453.09;5568704;25;20228;-82
2024/04/08 09:07:08;;;;;;;9.87;2.20;;;;;;;22.43;53.91;97440.31;5568511;25;20305;-82
2024/04/08 09:28:40;;;;;;;4.73;2.43;;;;;;;23.10;50.84;97444.03;5491367;26;20265;-81
2024/04/08 09:31:07;;;;;;;4.30;2.00;;;;;;;23.21;51.38;97443.50;5500200;26;20310;-84
2024/04/08 09:33:35;;;;;;;8.97;2.67;;;;;;;23.28;51.90;97474.00;5498945;26;20315;-84
2024/04/08 09:36:01;;;;;;;7.50;2.70;;;;;;;23.43;49.83;97461.22;5496962;26;20275;-84
2024/04/08 09:38:30;;;;;;;6.73;1.67;;;;;;;23.56;47.91;97450.47;5467967;26;20227;-84
2024/04/08 09:40:58;;;;;;;6.60;1.93;;;;;;;23.58;46.69;97451.09;5497552;26;20324;-84
2024/04/08 09:43:27;;;;;;;4.17;1.80;;;;;;;23.64;46.41;97447.56;5498357;26;20231;-83
2024/04/08 09:45:56;;;;;;;5.10;2.03;;;;;;;23.64;45.41;97431.38;5494688;26;20394;-83
2024/04/08 09:48:26;;;;;;;7.53;2.33;;;;;;;23.74;44.22;97447.19;5497768;26;20610;-83
2024/04/08 09:50:54;;;;;;;3.30;1.73;;;;;;;23.90;43.40;97436.03;5498880;26;20308;-83
2024/04/08 09:53:23;;;;;;;7.23;2.00;;;;;;;24.10;44.35;97445.81;5498616;26;20227;-83
2024/04/08 09:55:53;;;;;;;6.37;2.00;;;;;;;24.13;44.54;97458.91;5498354;26;20230;-83
2024/04/08 09:58:27;;;;;;;5.53;2.13;;;;;;;24.18;43.14;97439.38;5499389;26;20229;-83
2024/04/08 10:00:56;;;;;;;7.37;1.90;;;;;;;24.28;41.86;97419.03;5491741;26;20247;-86
2024/04/08 10:03:28;;;;;;;7.13;1.93;;;;;;;24.31;40.38;97445.59;5488396;26;20763;-86
2024/04/08 10:05:54;;;;;;;8.30;2.47;;;;;;;24.57;45.43;97488.84;5488774;26;20714;-86
2024/04/08 10:08:23;;;;;;;5.53;1.63;;;;;;;24.59;43.56;97462.47;5488885;26;20223;-87
2024/04/08 10:10:48;;;;;;;7.53;1.60;;;;;;;24.61;43.22;97463.06;5489359;26;20343;-87
2024/04/08 10:13:17;;;;;;;4.83;1.70;;;;;;;24.70;42.21;97452.88;5488675;26;20693;-87
2024/04/08 10:15:42;;;;;;;7.20;1.70;;;;;;;24.87;43.73;97468.44;5489474;26;20239;-87
2024/04/08 10:18:13;;;;;;;4.47;1.47;;;;;;;24.86;40.76;97439.75;5491070;26;20223;-87
2024/04/08 10:20:41;;;;;;;8.63;1.80;;;;;;;24.86;41.47;97461.38;5489007;26;20325;-87
2024/04/08 10:23:10;;;;;;;5.27;1.40;;;;;;;24.91;39.88;97449.91;5488245;26;20234;-87
2024/04/08 10:25:36;;;;;;;4.17;1.50;;;;;;;25.04;39.49;97453.44;5488753;26;20227;-87
2024/04/08 10:28:14;;;;;;;6.43;1.40;;;;;;;25.21;40.36;97453.78;5488500;26;20251;-87
2024/04/08 10:30:42;;;;;;;3.90;1.33;;;;;;;25.29;38.45;97429.25;5489843;26;20273;-87
2024/04/08 10:33:13;;;;;;;3.53;1.40;;;;;;;25.23;38.82;97430.88;5488575;26;20234;-86
2024/04/08 10:35:39;;;;;;;6.77;1.57;;;;;;;25.38;37.11;97417.97;5489902;26;20767;-86
2024/04/08 10:38:08;;;;;;;4.63;1.20;;;;;;;25.30;37.87;97425.50;5492121;26;20234;-85
2024/04/08 10:40:33;;;;;;;3.23;1.33;;;;;;;25.29;36.50;97408.41;5491956;26;20288;-86
2024/04/08 10:43:02;;;;;;;4.03;1.30;;;;;;;25.25;34.47;97398.25;5497044;26;20223;-87
2024/04/08 10:45:27;;;;;;;5.37;1.77;;;;;;;25.41;35.97;97420.22;5498059;26;20226;-87
2024/04/08 10:47:59;;;;;;;3.37;1.70;;;;;;;25.47;35.56;97411.25;5491540;26;20315;-87
2024/04/08 10:50:28;;;;;;;4.60;1.60;;;;;;;25.66;35.88;97414.91;5488889;26;20243;-87
2024/04/08 10:52:56;;;;;;;5.97;1.60;;;;;;;25.63;37.88;97428.84;5489655;26;20262;-86
2024/04/08 10:55:22;;;;;;;8.40;2.27;;;;;;;25.73;37.92;97424.63;5487797;26;20270;-86
2024/04/08 10:57:50;;;;;;;6.00;1.83;;;;;;;25.81;38.21;97413.53;5487508;26;20292;-87
2024/04/08 11:00:16;;;;;;;3.90;1.83;;;;;;;25.95;38.18;97423.25;5488544;26;20246;-87
2024/04/08 11:02:44;;;;;;;6.82;1.50;;;;;;;26.00;39.41;97434.28;5488775;26;20327;-87
2024/04/08 11:05:11;;;;;;;9.93;1.98;;;;;;;26.03;38.91;97428.41;5491769;26;20348;-83
2024/04/08 11:07:42;;;;;;;7.75;2.00;;;;;;;26.07;39.13;97429.63;5495528;26;20368;-83
2024/04/08 11:10:11;;;;;;;6.32;1.35;;;;;;;26.19;38.94;97422.47;5495017;26;20235;-83
2024/04/08 11:12:40;;;;;;;4.15;1.63;;;;;;;26.18;38.27;97411.84;5495245;26;20323;-83
2024/04/08 11:15:07;;;;;;;6.30;1.80;;;;;;;26.31;36.47;97388.19;5495664;26;20296;-83
2024/04/08 11:17:35;;;;;;;4.80;1.52;;;;;;;26.41;38.09;97403.94;5496238;26;20227;-83
2024/04/08 11:20:03;;;;;;;6.32;1.73;;;;;;;26.44;37.29;97407.03;5495310;26;20243;-83
2024/04/08 11:22:31;;;;;;;4.93;1.75;;;;;;;26.44;37.00;97404.31;5495054;26;20308;-83
2024/04/08 11:25:00;;;;;;;6.13;1.80;;;;;;;26.46;36.96;97404.91;5494918;26;20223;-82
2024/04/08 11:27:29;;;;;;;4.85;1.90;;;;;;;26.49;35.58;97388.22;5494560;26;20227;-82
2024/04/08 11:29:54;;;;;;;6.00;1.50;;;;;;;26.58;35.69;97400.44;5493787;26;20243;-82
2024/04/08 11:32:23;;;;;;;6.78;2.00;;;;;;;26.77;35.91;97402.13;5493749;26;20228;-82
2024/04/08 11:34:49;;;;;;;7.25;1.80;;;;;;;26.85;36.59;97409.97;5494810;26;20400;-82
2024/04/08 11:37:17;;;;;;;4.93;1.60;;;;;;;26.87;34.68;97388.88;5498357;26;20239;-82
2024/04/08 11:39:45;;;;;;;8.00;1.70;;;;;;;26.77;33.32;97372.28;5501084;26;20282;-82
2024/04/08 11:42:15;;;;;;;4.82;1.80;;;;;;;26.67;33.05;97372.00;5503232;26;20261;-82
2024/04/08 11:44:43;;;;;;;6.63;1.70;;;;;;;26.68;34.20;97389.09;5500401;26;20323;-83
2024/04/08 11:47:13;;;;;;;4.47;1.60;;;;;;;26.66;33.44;97386.63;5500124;26;20235;-83
2024/04/08 11:49:39;;;;;;;6.75;1.70;;;;;;;26.80;34.78;97407.09;5498819;26;20242;-82
2024/04/08 11:52:08;;;;;;;4.88;1.92;;;;;;;26.98;33.93;97407.13;5497714;26;20269;-84
2024/04/08 11:54:33;;;;;;;3.50;1.80;;;;;;;27.11;33.46;97390.69;5499399;26;20327;-83